Linwood, New York
Current Conditions -  °F | °C
As of 10:18 PM on Monday 26 Jan 2015 (Local Time) from KROC Reporting Station
Light Snow Light Snow  
Wind Chill:   Ceiling: 2400
Heat Index: 19°   Visibility: 1.7mi
Dew Point: 14°   Wind: 8mph
Humidity: 81%   Direction: 70°ENE
Pressure: 29.95"   Gusts: NA
Location:  42.89°N, 77.95°W
Report Text: KROC 270318Z 07007KT 1 3/4SM -SN OVC024 M07/M10 A2995 RMK AO2 P0000 T10721100
Loading
Personal Weather Stations






























Interactive Weather Map New forecast layout! Learn more

10-Day Weather Forecast

Advertisements
Track Severe Weather on mobile